Flight Track Log - Related Links

Times and Time Zones

All times are in EDT time to prevent confusion due to time zone crossing. See the N1944E flight status page for this flight to view local times or setup timezone preferences in your user account.

Time Position Orientation Groundspeed Altitude Reporting Facility
EDT Latitude Longitude Course Direction KTS MPH feet Rate Location/Type
Wed 06:03:46 PM 44.4656 -109.1158 235° Southwest 134 154 10,400  Level Salt Lake Center
Wed 06:04:48 PM 44.4458 -109.1708 243° Southwest 131 151 11,500 1,065 Climbing Salt Lake Center
Wed 06:05:50 PM 44.4242 -109.2167 237° Southwest 135 155 12,600 1,016 Climbing Salt Lake Center
Wed 06:06:52 PM 44.3978 -109.2600 230° Southwest 142 163 13,600 1,016 Climbing Salt Lake Center
Wed 06:07:54 PM 44.3744 -109.3056 234° Southwest 146 168 14,700 871 Climbing Salt Lake Center
Wed 06:08:56 PM 44.3519 -109.3517 236° Southwest 145 167 15,400 677 Climbing Salt Lake Center
Wed 06:09:00 PM 44.3532 -109.3449 235° Southwest  Level Estimated
Wed 06:09:58 PM 44.3275 -109.3981 234° Southwest 147 169 16,100  Level Salt Lake Center
Wed 06:11:00 PM 44.2933 -109.4644 234° Southwest 169 194 16,000 -48 Descending Salt Lake Center
Wed 06:12:02 PM 44.2653 -109.5200 235° Southwest 177 204 16,000  Level Salt Lake Center
Wed 06:13:04 PM 44.2364 -109.5736 233° Southwest 179 206 16,000 -48 Level Salt Lake Center
Wed 06:14:06 PM 44.2044 -109.6333 233° Southwest 174 200 15,900 -48 Descending Salt Lake Center
Wed 06:15:08 PM 44.1797 -109.6842 236° Southwest 168 193 15,900  Level Salt Lake Center
Wed 06:16:10 PM 44.1492 -109.7406 233° Southwest 164 189 15,900  Level Salt Lake Center
Wed 06:17:12 PM 44.1217 -109.7944 235° Southwest 173 199 15,900  Level Salt Lake Center
Wed 06:18:14 PM 44.0900 -109.8528 233° Southwest 171 197 15,900  Level Salt Lake Center
Wed 06:19:16 PM 44.0636 -109.9036 234° Southwest 170 196 15,900  Level Salt Lake Center
Wed 06:20:18 PM 44.0369 -109.9528 233° Southwest 168 193 15,900  Level Salt Lake Center
Wed 06:21:19 PM 44.0061 -110.0114 234° Southwest 168 193 15,900 -293 Level Salt Lake Center
Wed 06:22:21 PM 43.9783 -110.0636 234° Southwest 172 198 15,300 -484 Descending Salt Lake Center
Wed 06:23:23 PM 43.9411 -110.1322 233° Southwest 193 222 14,900 -194 Descending Salt Lake Center
Wed 06:24:25 PM 43.9144 -110.1817 233° Southwest 178 205 14,900 48 Level Salt Lake Center
Wed 06:25:27 PM 43.8825 -110.2381 232° Southwest 169 194 15,000 48 Climbing Salt Lake Center
Wed 06:26:29 PM 43.8567 -110.2856 233° Southwest 165 190 15,000  Level Salt Lake Center
Wed 06:27:31 PM 43.8272 -110.3397 233° Southwest 162 186 15,000 -339 Level Salt Lake Center
Wed 06:28:33 PM 43.8042 -110.3797 231° Southwest 159 183 14,300 -1,210 Descending Salt Lake Center
Wed 06:29:35 PM 43.8006 -110.4672 267° West 179 206 12,500 -1,161 Descending Salt Lake Center
Wed 06:30:37 PM 43.8061 -110.5294 277° West 177 204 11,900 -581 Descending Salt Lake Center

Login

Don't have an account? Register now (free) for customized features, flight alerts, and more!